createdAt,value
2023-02-01T00:01:46.180Z,100.00
2023-02-01T00:04:15.818Z,100.00
2023-02-01T00:06:45.315Z,100.00
2023-02-01T00:09:15.930Z,100.00
2023-02-01T00:11:45.539Z,100.00
2023-02-01T00:14:14.957Z,100.00
2023-02-01T00:16:44.521Z,100.00
2023-02-01T00:19:16.846Z,100.00
2023-02-01T00:21:46.799Z,100.00
2023-02-01T00:24:16.374Z,100.00
2023-02-01T00:26:48.205Z,100.00
2023-02-01T00:29:20.393Z,100.00
2023-02-01T00:31:53.657Z,100.00
2023-02-01T00:34:23.163Z,100.00
2023-02-01T00:36:53.203Z,100.00
2023-02-01T00:39:22.799Z,100.00
2023-02-01T00:41:52.397Z,100.00
2023-02-01T00:44:21.846Z,100.00
2023-02-01T00:46:52.017Z,100.00
2023-02-01T00:49:22.234Z,100.00
2023-02-01T00:51:52.875Z,100.00
2023-02-01T00:54:23.328Z,100.00
2023-02-01T00:56:54.360Z,100.00
2023-02-01T00:59:24.465Z,100.00
2023-02-01T01:01:55.259Z,100.00
2023-02-01T01:04:27.247Z,100.00
2023-02-01T01:06:56.385Z,100.00
2023-02-01T01:09:26.052Z,99.75
2023-02-01T01:11:56.902Z,99.48
2023-02-01T01:14:27.446Z,99.69
2023-02-01T01:16:57.233Z,99.85
2023-02-01T01:19:27.753Z,100.00
2023-02-01T01:21:57.153Z,100.00
2023-02-01T01:24:26.842Z,100.00
2023-02-01T01:26:56.382Z,100.00
2023-02-01T01:29:26.090Z,100.00
2023-02-01T01:31:56.174Z,100.00
2023-02-01T01:34:27.734Z,100.00
2023-02-01T01:36:58.543Z,100.00
2023-02-01T01:39:28.933Z,100.00
2023-02-01T01:41:59.992Z,100.00
2023-02-01T01:45:08.547Z,100.00
2023-02-01T01:47:46.806Z,100.00
2023-02-01T01:50:23.108Z,100.00
2023-02-01T01:52:56.681Z,100.00
2023-02-01T01:55:29.643Z,100.00
2023-02-01T01:58:09.315Z,100.00
2023-02-01T02:00:40.485Z,100.00
2023-02-01T02:03:23.118Z,100.00
2023-02-01T02:05:57.629Z,100.00
2023-02-01T02:08:29.429Z,100.00
2023-02-01T02:11:01.897Z,100.00
2023-02-01T02:13:35.372Z,100.00
2023-02-01T02:16:41.242Z,100.00
2023-02-01T02:19:33.571Z,100.00
2023-02-01T02:22:16.949Z,100.00
2023-02-01T02:25:05.384Z,100.00
2023-02-01T02:28:09.170Z,100.00
2023-02-01T02:30:42.733Z,100.00
2023-02-01T02:33:58.291Z,100.00
2023-02-01T02:36:54.937Z,100.00
2023-02-01T02:40:09.570Z,100.00
2023-02-01T02:43:07.914Z,100.00
2023-02-01T02:46:18.011Z,100.00
2023-02-01T02:49:07.343Z,100.00
2023-02-01T02:52:19.463Z,100.00
2023-02-01T02:54:52.472Z,100.00
2023-02-01T02:57:45.663Z,100.00
2023-02-01T03:00:40.712Z,100.00
2023-02-01T03:03:30.224Z,100.00
2023-02-01T03:06:01.983Z,100.00
2023-02-01T03:08:34.243Z,100.00
2023-02-01T03:11:10.186Z,100.00
2023-02-01T03:13:58.891Z,100.00
2023-02-01T03:16:43.559Z,100.00
2023-02-01T03:19:26.208Z,100.00
2023-02-01T03:22:03.813Z,100.00
2023-02-01T03:24:40.927Z,100.00
2023-02-01T03:27:25.827Z,100.00
2023-02-01T03:30:07.971Z,100.00
2023-02-01T03:33:00.439Z,100.00
2023-02-01T03:35:40.425Z,100.00
2023-02-01T03:38:33.251Z,100.00
2023-02-01T03:41:51.223Z,100.00
2023-02-01T03:44:28.885Z,100.00
2023-02-01T03:47:14.721Z,100.00
2023-02-01T03:49:56.119Z,100.00
2023-02-01T03:52:42.146Z,100.00
2023-02-01T03:55:14.308Z,100.00
2023-02-01T03:57:54.619Z,100.00
2023-02-01T04:00:26.496Z,100.00
2023-02-01T04:02:56.353Z,100.00
2023-02-01T04:05:25.803Z,100.00
2023-02-01T04:08:00.649Z,100.00
2023-02-01T04:10:29.772Z,100.00
2023-02-01T04:12:59.046Z,100.00
2023-02-01T04:15:28.477Z,100.00
2023-02-01T04:17:57.941Z,100.00
2023-02-01T04:20:26.908Z,100.00
2023-02-01T04:22:56.221Z,100.00
2023-02-01T04:25:26.776Z,100.00
2023-02-01T04:27:57.636Z,100.00
2023-02-01T04:30:27.832Z,100.00
2023-02-01T04:32:57.648Z,100.00
2023-02-01T04:35:27.364Z,100.00
2023-02-01T04:37:57.294Z,100.00
2023-02-01T04:40:27.677Z,100.00
2023-02-01T04:42:57.318Z,100.00
2023-02-01T04:45:27.563Z,100.00
2023-02-01T04:47:56.686Z,100.00
2023-02-01T04:50:25.683Z,100.00
2023-02-01T04:52:55.887Z,100.00
2023-02-01T04:55:25.132Z,100.00
2023-02-01T04:57:54.514Z,100.00
2023-02-01T05:00:24.488Z,100.00
2023-02-01T05:02:54.629Z,100.00
2023-02-01T05:05:23.936Z,100.00
2023-02-01T05:07:53.678Z,100.00
2023-02-01T05:10:23.764Z,100.00
2023-02-01T05:13:13.048Z,100.00
2023-02-01T05:15:42.161Z,100.00
2023-02-01T05:18:11.535Z,100.00
2023-02-01T05:20:41.148Z,100.00
2023-02-01T05:23:11.355Z,100.00
2023-02-01T05:25:40.341Z,100.00
2023-02-01T05:28:09.250Z,100.00
2023-02-01T05:30:41.178Z,100.00
2023-02-01T05:33:11.522Z,100.00
2023-02-01T05:35:40.527Z,100.00
2023-02-01T05:38:10.648Z,100.00
2023-02-01T05:40:39.803Z,100.00
2023-02-01T05:43:09.536Z,100.00
2023-02-01T05:45:39.048Z,100.00
2023-02-01T05:48:08.047Z,100.00
2023-02-01T05:50:38.876Z,100.00
2023-02-01T05:53:12.984Z,100.00
2023-02-01T05:55:44.041Z,100.00
2023-02-01T05:58:14.038Z,100.00
2023-02-01T06:00:43.854Z,100.00
2023-02-01T06:03:13.556Z,100.00
2023-02-01T06:05:45.587Z,100.00
2023-02-01T06:08:15.655Z,100.00
2023-02-01T06:10:44.946Z,100.00
2023-02-01T06:13:13.743Z,100.00
2023-02-01T06:15:45.921Z,100.00
2023-02-01T06:18:17.040Z,100.00
2023-02-01T06:20:45.929Z,100.00
2023-02-01T06:23:14.724Z,100.00
2023-02-01T06:25:43.714Z,100.00
2023-02-01T06:28:12.397Z,100.00
2023-02-01T06:30:44.508Z,100.00
2023-02-01T06:33:16.427Z,100.00
2023-02-01T06:35:46.504Z,100.00
2023-02-01T06:38:15.642Z,100.00
2023-02-01T06:40:45.058Z,100.00
2023-02-01T06:43:14.037Z,100.00
2023-02-01T06:45:43.338Z,100.00
2023-02-01T06:48:12.117Z,100.00
2023-02-01T06:50:40.913Z,100.00
2023-02-01T06:53:09.801Z,100.00
2023-02-01T06:55:38.586Z,100.00
2023-02-01T06:58:07.382Z,100.00
2023-02-01T07:00:36.422Z,100.00
2023-02-01T07:03:05.465Z,100.00
2023-02-01T07:05:34.774Z,100.00
2023-02-01T07:08:03.344Z,100.00
2023-02-01T07:10:32.850Z,100.00
2023-02-01T07:13:01.724Z,100.00
2023-02-01T07:15:31.140Z,100.00
2023-02-01T07:17:59.827Z,100.00
2023-02-01T07:20:28.633Z,100.00
2023-02-01T07:22:58.706Z,100.00
2023-02-01T07:25:27.455Z,100.00
2023-02-01T07:27:56.231Z,100.00
2023-02-01T07:30:25.547Z,100.00
2023-02-01T07:32:54.330Z,100.00
2023-02-01T07:35:22.978Z,100.00
2023-02-01T07:37:53.219Z,100.00
2023-02-01T07:40:26.803Z,100.00
2023-02-01T07:43:00.011Z,100.00
2023-02-01T07:45:29.634Z,100.00
2023-02-01T07:47:58.297Z,100.00
2023-02-01T07:50:27.837Z,100.00
2023-02-01T07:52:56.519Z,100.00
2023-02-01T07:55:26.188Z,100.00
2023-02-01T07:57:58.426Z,100.00
2023-02-01T08:00:46.016Z,100.00
2023-02-01T08:03:17.458Z,100.00
2023-02-01T08:05:46.122Z,100.00
2023-02-01T08:08:14.910Z,99.77
2023-02-01T08:10:44.313Z,99.88
2023-02-01T08:13:13.093Z,100.00
2023-02-01T08:15:41.716Z,100.00
2023-02-01T08:18:12.409Z,100.00
2023-02-01T08:20:42.747Z,100.00
2023-02-01T08:23:11.318Z,99.80
2023-02-01T08:25:40.412Z,99.69
2023-02-01T08:28:09.712Z,99.20
2023-02-01T08:30:39.910Z,99.16
2023-02-01T08:33:08.859Z,99.01
2023-02-01T08:35:43.689Z,98.55
2023-02-01T08:38:13.076Z,98.11
2023-02-01T08:40:42.956Z,97.85
2023-02-01T08:43:11.665Z,97.87
2023-02-01T08:45:41.282Z,98.19
2023-02-01T08:48:09.819Z,97.58
2023-02-01T08:50:38.379Z,97.43
2023-02-01T08:53:10.318Z,98.44
2023-02-01T08:55:39.197Z,99.87
2023-02-01T08:58:08.280Z,98.65
2023-02-01T09:00:38.093Z,97.04
2023-02-01T09:03:07.191Z,96.79
2023-02-01T09:05:48.736Z,96.99
2023-02-01T09:08:20.833Z,97.06
2023-02-01T09:10:50.041Z,96.98
2023-02-01T09:13:18.826Z,97.14
2023-02-01T09:15:48.256Z,97.11
2023-02-01T09:18:17.525Z,97.11
2023-02-01T09:20:46.510Z,97.04
2023-02-01T09:23:16.127Z,97.31
2023-02-01T09:25:45.016Z,97.04
2023-02-01T09:28:13.907Z,97.53
2023-02-01T09:30:42.935Z,97.77
2023-02-01T09:33:11.694Z,97.85
2023-02-01T09:35:40.672Z,98.14
2023-02-01T09:38:09.388Z,99.55
2023-02-01T09:40:47.785Z,100.00
2023-02-01T09:43:47.488Z,99.96
2023-02-01T09:46:35.376Z,99.93
2023-02-01T09:49:15.896Z,100.00
2023-02-01T09:51:48.968Z,100.00
2023-02-01T09:54:21.568Z,100.00
2023-02-01T09:56:53.728Z,100.00
2023-02-01T09:59:45.961Z,100.00
2023-02-01T10:02:27.864Z,100.00
2023-02-01T10:05:02.681Z,100.00
2023-02-01T10:07:34.537Z,100.00
2023-02-01T10:10:30.772Z,100.00
2023-02-01T10:13:17.475Z,100.00
2023-02-01T10:16:07.420Z,100.00
2023-02-01T10:18:58.691Z,100.00
2023-02-01T10:21:33.002Z,100.00
2023-02-01T10:24:21.546Z,100.00
2023-02-01T10:27:18.906Z,100.00
2023-02-01T10:30:13.296Z,100.00
2023-02-01T10:32:42.763Z,100.00
2023-02-01T10:35:25.308Z,100.00
2023-02-01T10:37:54.606Z,100.00
2023-02-01T10:40:27.618Z,100.00
2023-02-01T10:43:03.071Z,100.00
2023-02-01T10:45:35.044Z,100.00
2023-02-01T10:48:05.343Z,100.00
2023-02-01T10:50:40.659Z,100.00
2023-02-01T10:53:28.187Z,100.00
2023-02-01T10:55:57.801Z,100.00
2023-02-01T10:58:37.760Z,100.00
2023-02-01T11:01:12.472Z,100.00
2023-02-01T11:03:42.497Z,100.00
2023-02-01T11:06:24.690Z,100.00
2023-02-01T11:09:11.611Z,100.00
2023-02-01T11:12:00.993Z,100.00
2023-02-01T11:14:38.673Z,100.00
2023-02-01T11:17:16.464Z,100.00
2023-02-01T11:19:57.236Z,100.00
2023-02-01T11:22:29.115Z,100.00
2023-02-01T11:25:00.361Z,100.00
2023-02-01T11:27:29.135Z,100.00
2023-02-01T11:30:02.764Z,100.00
2023-02-01T11:32:32.464Z,100.00
2023-02-01T11:35:05.412Z,100.00
2023-02-01T11:37:44.886Z,100.00
2023-02-01T11:40:19.292Z,100.00
2023-02-01T11:43:26.284Z,100.00
2023-02-01T11:46:02.430Z,100.00
2023-02-01T11:48:33.900Z,100.00
2023-02-01T11:51:24.686Z,100.00
2023-02-01T11:54:22.249Z,100.00
2023-02-01T11:57:16.843Z,100.00
2023-02-01T12:00:09.800Z,100.00
2023-02-01T12:03:15.084Z,100.00
2023-02-01T12:06:09.029Z,100.00
2023-02-01T12:08:56.335Z,100.00
2023-02-01T12:11:44.273Z,100.00
2023-02-01T12:14:50.027Z,100.00
2023-02-01T12:17:26.747Z,100.00
2023-02-01T12:20:04.721Z,100.00
2023-02-01T12:23:07.488Z,100.00
2023-02-01T12:25:43.650Z,100.00
2023-02-01T12:28:46.743Z,100.00
2023-02-01T12:31:54.378Z,100.00
2023-02-01T12:34:35.128Z,100.00
2023-02-01T12:37:19.668Z,100.00
2023-02-01T12:40:08.619Z,100.00
2023-02-01T12:42:44.584Z,100.00
2023-02-01T12:45:16.336Z,100.00
2023-02-01T12:48:01.171Z,100.00
2023-02-01T12:50:49.957Z,100.00
2023-02-01T12:53:47.819Z,100.00
2023-02-01T12:56:27.066Z,100.00
2023-02-01T12:59:02.165Z,100.00
2023-02-01T13:02:15.803Z,100.00
2023-02-01T13:05:00.188Z,100.00
2023-02-01T13:08:04.000Z,99.87
2023-02-01T13:10:38.317Z,99.81
2023-02-01T13:13:36.182Z,99.90
2023-02-01T13:16:05.179Z,100.00
2023-02-01T13:18:38.627Z,99.86
2023-02-01T13:21:12.149Z,99.46
2023-02-01T13:23:45.574Z,99.89
2023-02-01T13:26:14.159Z,100.00
2023-02-01T13:28:49.296Z,100.00
2023-02-01T13:32:01.911Z,99.56
2023-02-01T13:34:33.150Z,99.51
2023-02-01T13:37:17.206Z,98.99
2023-02-01T13:40:08.012Z,98.87
2023-02-01T13:42:52.155Z,99.03
2023-02-01T13:45:26.534Z,99.43
2023-02-01T13:47:58.949Z,99.40
2023-02-01T13:50:32.307Z,99.98
2023-02-01T13:53:13.116Z,100.00
2023-02-01T13:56:12.618Z,100.00
2023-02-01T13:58:43.894Z,100.00
2023-02-01T14:01:24.994Z,100.00
2023-02-01T14:04:27.477Z,100.00
2023-02-01T14:06:59.019Z,100.00
2023-02-01T14:09:40.268Z,100.00
2023-02-01T14:12:48.148Z,100.00
2023-02-01T14:15:23.228Z,100.00
2023-02-01T14:17:52.421Z,100.00
2023-02-01T14:20:45.357Z,100.00
2023-02-01T14:23:18.264Z,100.00
2023-02-01T14:25:49.202Z,100.00
2023-02-01T14:28:27.533Z,100.00
2023-02-01T14:30:59.252Z,100.00
2023-02-01T14:33:29.669Z,100.00
2023-02-01T14:36:11.548Z,100.00
2023-02-01T14:38:49.378Z,100.00
2023-02-01T14:41:30.949Z,100.00
2023-02-01T14:44:05.353Z,100.00
2023-02-01T14:47:05.894Z,100.00
2023-02-01T14:49:39.185Z,100.00
2023-02-01T14:52:14.831Z,100.00
2023-02-01T14:54:50.784Z,100.00
2023-02-01T14:57:22.175Z,100.00
2023-02-01T15:00:01.061Z,100.00
2023-02-01T15:02:32.950Z,100.00
2023-02-01T15:05:01.623Z,100.00
2023-02-01T15:07:31.115Z,100.00
2023-02-01T15:10:01.114Z,100.00
2023-02-01T15:12:33.189Z,100.00
2023-02-01T15:15:13.558Z,100.00
2023-02-01T15:17:42.445Z,100.00
2023-02-01T15:20:18.870Z,100.00
2023-02-01T15:23:03.015Z,100.00
2023-02-01T15:25:38.214Z,100.00
2023-02-01T15:28:13.852Z,100.00
2023-02-01T15:31:03.406Z,100.00
2023-02-01T15:33:33.397Z,100.00
2023-02-01T15:36:09.700Z,100.00
2023-02-01T15:38:41.703Z,100.00
2023-02-01T15:41:17.731Z,100.00
2023-02-01T15:44:13.031Z,100.00
2023-02-01T15:46:46.283Z,100.00
2023-02-01T15:49:42.673Z,100.00
2023-02-01T15:52:26.391Z,100.00
2023-02-01T15:54:59.509Z,100.00
2023-02-01T15:57:31.935Z,100.00
2023-02-01T16:00:06.390Z,100.00
2023-02-01T16:02:45.979Z,100.00
2023-02-01T16:05:33.950Z,100.00
2023-02-01T16:08:11.754Z,100.00
2023-02-01T16:10:51.032Z,100.00
2023-02-01T16:13:24.178Z,100.00
2023-02-01T16:15:52.836Z,100.00
2023-02-01T16:18:21.556Z,100.00
2023-02-01T16:20:50.339Z,100.00
2023-02-01T16:23:20.142Z,100.00
2023-02-01T16:25:48.729Z,100.00
2023-02-01T16:28:17.322Z,100.00
2023-02-01T16:30:45.829Z,100.00
2023-02-01T16:33:21.756Z,100.00
2023-02-01T16:35:51.359Z,100.00
2023-02-01T16:38:23.593Z,100.00
2023-02-01T16:40:53.235Z,100.00
2023-02-01T16:43:24.821Z,100.00
2023-02-01T16:45:56.836Z,100.00
2023-02-01T16:48:31.184Z,100.00
2023-02-01T16:51:04.023Z,100.00
2023-02-01T16:53:41.697Z,100.00
2023-02-01T16:56:20.293Z,100.00
2023-02-01T16:58:48.948Z,100.00
2023-02-01T17:01:20.000Z,100.00
2023-02-01T17:03:48.868Z,100.00
2023-02-01T17:06:23.093Z,100.00
2023-02-01T17:08:55.153Z,100.00
2023-02-01T17:11:23.646Z,100.00
2023-02-01T17:13:52.327Z,100.00
2023-02-01T17:16:24.377Z,100.00
2023-02-01T17:19:03.518Z,100.00
2023-02-01T17:21:41.425Z,100.00
2023-02-01T17:24:21.643Z,100.00
2023-02-01T17:26:51.928Z,100.00
2023-02-01T17:29:21.004Z,100.00
2023-02-01T17:31:52.610Z,100.00
2023-02-01T17:34:21.339Z,100.00
2023-02-01T17:36:50.127Z,100.00
2023-02-01T17:39:38.191Z,100.00
2023-02-01T17:42:11.508Z,100.00
2023-02-01T17:44:40.347Z,100.00
2023-02-01T17:47:09.033Z,100.00
2023-02-01T17:49:39.151Z,100.00
2023-02-01T17:52:15.313Z,100.00
2023-02-01T17:54:44.101Z,100.00
2023-02-01T17:57:13.959Z,100.00
2023-02-01T17:59:43.428Z,100.00
2023-02-01T18:02:23.555Z,100.00
2023-02-01T18:04:52.356Z,100.00
2023-02-01T18:07:21.871Z,100.00
2023-02-01T18:09:50.651Z,100.00
2023-02-01T18:12:22.350Z,100.00
2023-02-01T18:14:51.101Z,100.00
2023-02-01T18:17:20.508Z,100.00
2023-02-01T18:19:49.256Z,100.00
2023-02-01T18:22:22.064Z,100.00
2023-02-01T18:24:50.856Z,100.00
2023-02-01T18:27:19.340Z,100.00
2023-02-01T18:29:48.226Z,100.00
2023-02-01T18:32:16.912Z,100.00
2023-02-01T18:34:45.593Z,100.00
2023-02-01T18:37:14.385Z,100.00
2023-02-01T18:39:45.018Z,100.00
2023-02-01T18:42:13.497Z,100.00
2023-02-01T18:44:42.187Z,100.00
2023-02-01T18:47:11.078Z,100.00
2023-02-01T18:49:39.562Z,100.00
2023-02-01T18:52:08.236Z,100.00
2023-02-01T18:54:37.076Z,100.00
2023-02-01T18:57:07.574Z,100.00
2023-02-01T18:59:36.239Z,100.00
2023-02-01T19:02:04.934Z,100.00
2023-02-01T19:04:34.631Z,100.00
2023-02-01T19:07:03.937Z,100.00
2023-02-01T19:09:35.596Z,100.00
2023-02-01T19:12:05.224Z,100.00
2023-02-01T19:14:33.783Z,100.00
2023-02-01T19:17:02.470Z,100.00
2023-02-01T19:19:31.692Z,100.00
2023-02-01T19:22:00.753Z,100.00
2023-02-01T19:24:30.369Z,100.00
2023-02-01T19:26:58.966Z,100.00
2023-02-01T19:29:27.939Z,100.00
2023-02-01T19:31:57.168Z,100.00
2023-02-01T19:34:26.130Z,100.00
2023-02-01T19:36:55.283Z,100.00
2023-02-01T19:39:25.354Z,100.00
2023-02-01T19:41:54.001Z,100.00
2023-02-01T19:44:22.616Z,100.00
2023-02-01T19:46:51.656Z,100.00
2023-02-01T19:49:21.217Z,100.00
2023-02-01T19:51:49.956Z,100.00
2023-02-01T19:54:18.997Z,100.00
2023-02-01T19:56:49.417Z,100.00
2023-02-01T19:59:19.435Z,100.00
2023-02-01T20:01:48.351Z,100.00
2023-02-01T20:04:18.184Z,100.00
2023-02-01T20:06:49.284Z,100.00
2023-02-01T20:09:27.059Z,100.00
2023-02-01T20:11:55.777Z,100.00
2023-02-01T20:14:26.670Z,100.00
2023-02-01T20:16:55.764Z,100.00
2023-02-01T20:19:24.670Z,100.00
2023-02-01T20:21:53.545Z,100.00
2023-02-01T20:24:22.644Z,100.00
2023-02-01T20:26:52.426Z,100.00
2023-02-01T20:29:21.290Z,100.00
2023-02-01T20:31:50.024Z,100.00
2023-02-01T20:34:18.864Z,100.00
2023-02-01T20:36:47.763Z,100.00
2023-02-01T20:39:16.238Z,100.00
2023-02-01T20:41:44.828Z,100.00
2023-02-01T20:44:13.407Z,100.00
2023-02-01T20:46:42.077Z,100.00
2023-02-01T20:49:10.678Z,100.00
2023-02-01T20:51:39.369Z,100.00
2023-02-01T20:54:08.158Z,100.00
2023-02-01T20:56:38.288Z,100.00
2023-02-01T20:59:11.067Z,100.00
2023-02-01T21:01:53.119Z,100.00
2023-02-01T21:04:27.454Z,100.00
2023-02-01T21:06:58.054Z,100.00
2023-02-01T21:09:27.726Z,100.00
2023-02-01T21:11:56.715Z,100.00
2023-02-01T21:14:25.710Z,100.00
2023-02-01T21:16:54.809Z,100.00
2023-02-01T21:19:26.196Z,100.00
2023-02-01T21:21:55.254Z,100.00
2023-02-01T21:24:23.933Z,100.00
2023-02-01T21:26:52.526Z,100.00
2023-02-01T21:29:21.410Z,100.00
2023-02-01T21:31:49.985Z,100.00
2023-02-01T21:34:18.884Z,100.00
2023-02-01T21:36:47.770Z,100.00
2023-02-01T21:39:17.993Z,100.00
2023-02-01T21:42:05.215Z,100.00
2023-02-01T21:44:33.907Z,100.00
2023-02-01T21:47:04.225Z,100.00
2023-02-01T21:49:32.905Z,100.00
2023-02-01T21:52:02.311Z,100.00
2023-02-01T21:54:30.995Z,100.00
2023-02-01T21:57:00.816Z,100.00
2023-02-01T21:59:29.499Z,100.00
2023-02-01T22:01:58.467Z,100.00
2023-02-01T22:04:27.178Z,100.00
2023-02-01T22:06:56.268Z,100.00
2023-02-01T22:09:26.656Z,100.00
2023-02-01T22:11:56.002Z,100.00
2023-02-01T22:14:24.881Z,100.00
2023-02-01T22:16:53.902Z,100.00
2023-02-01T22:19:22.575Z,100.00
2023-02-01T22:21:51.245Z,100.00
2023-02-01T22:24:23.620Z,100.00
2023-02-01T22:26:52.346Z,100.00
2023-02-01T22:29:21.239Z,100.00
2023-02-01T22:31:51.119Z,100.00
2023-02-01T22:34:19.886Z,100.00
2023-02-01T22:36:51.960Z,100.00
2023-02-01T22:39:20.845Z,100.00
2023-02-01T22:41:49.429Z,100.00
2023-02-01T22:44:18.324Z,100.00
2023-02-01T22:46:47.422Z,100.00
2023-02-01T22:49:16.912Z,100.00
2023-02-01T22:51:46.716Z,100.00
2023-02-01T22:54:19.537Z,100.00
2023-02-01T22:56:49.933Z,100.00
2023-02-01T22:59:18.606Z,100.00
2023-02-01T23:01:47.505Z,100.00
2023-02-01T23:04:16.914Z,100.00
2023-02-01T23:06:45.993Z,100.00
2023-02-01T23:09:20.635Z,100.00
2023-02-01T23:11:50.651Z,100.00
2023-02-01T23:14:19.625Z,100.00
2023-02-01T23:16:50.107Z,100.00
2023-02-01T23:19:20.778Z,100.00
2023-02-01T23:21:50.183Z,100.00
2023-02-01T23:24:19.497Z,100.00
2023-02-01T23:26:48.802Z,100.00
2023-02-01T23:29:19.119Z,100.00
2023-02-01T23:31:47.872Z,100.00
2023-02-01T23:34:16.883Z,100.00
2023-02-01T23:36:45.672Z,100.00
2023-02-01T23:39:15.299Z,100.00
2023-02-01T23:41:44.594Z,100.00
2023-02-01T23:44:13.787Z,100.00
2023-02-01T23:46:47.713Z,100.00
2023-02-01T23:49:18.328Z,100.00
2023-02-01T23:51:53.372Z,100.00
2023-02-01T23:54:23.049Z,100.00
2023-02-01T23:56:51.763Z,100.00
2023-02-01T23:59:22.488Z,100.00
